sensor_id;sensor_type;location;lat;lon;timestamp;P1;durP1;ratioP1;P2;durP2;ratioP2
24301;SDS011;12421;49.732;20.078;2023-01-30T00:09:52;92.80;;;49.40;;
24301;SDS011;12421;49.732;20.078;2023-01-30T00:19:58;81.60;;;45.00;;
24301;SDS011;12421;49.732;20.078;2023-01-30T00:30:19;107.50;;;52.20;;
24301;SDS011;12421;49.732;20.078;2023-01-30T00:40:24;87.70;;;47.30;;
24301;SDS011;12421;49.732;20.078;2023-01-30T00:51:11;84.00;;;45.80;;
24301;SDS011;12421;49.732;20.078;2023-01-30T01:01:39;86.20;;;45.00;;
24301;SDS011;12421;49.732;20.078;2023-01-30T01:11:42;98.90;;;51.30;;
24301;SDS011;12421;49.732;20.078;2023-01-30T01:22:20;76.80;;;41.40;;
24301;SDS011;12421;49.732;20.078;2023-01-30T01:32:36;81.40;;;43.30;;
24301;SDS011;12421;49.732;20.078;2023-01-30T01:42:41;77.20;;;41.60;;
24301;SDS011;12421;49.732;20.078;2023-01-30T01:53:09;89.40;;;46.80;;
24301;SDS011;12421;49.732;20.078;2023-01-30T02:03:29;70.80;;;36.50;;
24301;SDS011;12421;49.732;20.078;2023-01-30T02:14:00;65.70;;;35.40;;
24301;SDS011;12421;49.732;20.078;2023-01-30T02:35:25;65.90;;;33.10;;
24301;SDS011;12421;49.732;20.078;2023-01-30T02:56:59;45.00;;;22.90;;
24301;SDS011;12421;49.732;20.078;2023-01-30T03:07:26;46.80;;;23.80;;
24301;SDS011;12421;49.732;20.078;2023-01-30T03:17:37;41.60;;;21.20;;
24301;SDS011;12421;49.732;20.078;2023-01-30T03:28:15;47.80;;;24.30;;
24301;SDS011;12421;49.732;20.078;2023-01-30T03:38:19;36.90;;;21.00;;
24301;SDS011;12421;49.732;20.078;2023-01-30T03:48:25;28.00;;;17.70;;
24301;SDS011;12421;49.732;20.078;2023-01-30T03:58:44;31.90;;;17.60;;
24301;SDS011;12421;49.732;20.078;2023-01-30T04:08:57;31.70;;;16.20;;
24301;SDS011;12421;49.732;20.078;2023-01-30T04:19:12;24.60;;;14.60;;
24301;SDS011;12421;49.732;20.078;2023-01-30T04:40:23;28.00;;;15.70;;
24301;SDS011;12421;49.732;20.078;2023-01-30T04:50:47;20.60;;;12.00;;
24301;SDS011;12421;49.732;20.078;2023-01-30T05:00:52;26.40;;;15.20;;
24301;SDS011;12421;49.732;20.078;2023-01-30T05:11:04;25.90;;;15.10;;
24301;SDS011;12421;49.732;20.078;2023-01-30T05:21:47;21.20;;;14.00;;
24301;SDS011;12421;49.732;20.078;2023-01-30T05:32:30;25.70;;;14.70;;
24301;SDS011;12421;49.732;20.078;2023-01-30T05:42:48;24.40;;;15.20;;
24301;SDS011;12421;49.732;20.078;2023-01-30T05:53:13;25.20;;;14.80;;
24301;SDS011;12421;49.732;20.078;2023-01-30T06:03:36;15.30;;;9.80;;
24301;SDS011;12421;49.732;20.078;2023-01-30T06:13:51;10.50;;;7.40;;
24301;SDS011;12421;49.732;20.078;2023-01-30T06:23:56;13.00;;;8.20;;
24301;SDS011;12421;49.732;20.078;2023-01-30T06:34:10;18.90;;;10.80;;
24301;SDS011;12421;49.732;20.078;2023-01-30T06:44:15;14.60;;;9.10;;
24301;SDS011;12421;49.732;20.078;2023-01-30T06:54:42;15.40;;;8.70;;
24301;SDS011;12421;49.732;20.078;2023-01-30T07:04:49;19.20;;;11.50;;
24301;SDS011;12421;49.732;20.078;2023-01-30T07:14:55;17.10;;;10.30;;
24301;SDS011;12421;49.732;20.078;2023-01-30T07:25:00;14.00;;;8.60;;
24301;SDS011;12421;49.732;20.078;2023-01-30T07:35:04;18.40;;;10.60;;
24301;SDS011;12421;49.732;20.078;2023-01-30T07:45:09;19.40;;;11.40;;
24301;SDS011;12421;49.732;20.078;2023-01-30T07:55:14;13.80;;;9.60;;
24301;SDS011;12421;49.732;20.078;2023-01-30T08:05:18;19.40;;;11.40;;
24301;SDS011;12421;49.732;20.078;2023-01-30T08:15:23;20.20;;;12.20;;
24301;SDS011;12421;49.732;20.078;2023-01-30T08:25:28;15.20;;;9.20;;
24301;SDS011;12421;49.732;20.078;2023-01-30T08:35:33;19.20;;;11.30;;
24301;SDS011;12421;49.732;20.078;2023-01-30T08:45:38;15.00;;;10.30;;
24301;SDS011;12421;49.732;20.078;2023-01-30T08:55:43;16.80;;;11.50;;
24301;SDS011;12421;49.732;20.078;2023-01-30T09:05:54;16.30;;;10.30;;
24301;SDS011;12421;49.732;20.078;2023-01-30T09:16:23;24.20;;;15.20;;
24301;SDS011;12421;49.732;20.078;2023-01-30T09:26:30;16.60;;;10.40;;
24301;SDS011;12421;49.732;20.078;2023-01-30T09:36:35;18.30;;;11.90;;
24301;SDS011;12421;49.732;20.078;2023-01-30T09:46:41;21.80;;;14.00;;
24301;SDS011;12421;49.732;20.078;2023-01-30T10:18:28;15.50;;;10.10;;
24301;SDS011;12421;49.732;20.078;2023-01-30T10:28:40;13.80;;;9.80;;
24301;SDS011;12421;49.732;20.078;2023-01-30T10:39:23;14.20;;;10.30;;
24301;SDS011;12421;49.732;20.078;2023-01-30T11:00:10;16.00;;;10.80;;
24301;SDS011;12421;49.732;20.078;2023-01-30T11:21:30;14.30;;;10.40;;
24301;SDS011;12421;49.732;20.078;2023-01-30T11:51:57;16.90;;;12.00;;
24301;SDS011;12421;49.732;20.078;2023-01-30T12:12:33;13.70;;;9.30;;
24301;SDS011;12421;49.732;20.078;2023-01-30T12:23:00;13.80;;;10.30;;
24301;SDS011;12421;49.732;20.078;2023-01-30T12:33:13;13.60;;;10.20;;
24301;SDS011;12421;49.732;20.078;2023-01-30T12:53:53;20.30;;;13.70;;
24301;SDS011;12421;49.732;20.078;2023-01-30T13:24:50;16.00;;;11.70;;
24301;SDS011;12421;49.732;20.078;2023-01-30T13:35:18;14.70;;;10.80;;
24301;SDS011;12421;49.732;20.078;2023-01-30T13:45:32;18.40;;;11.70;;
24301;SDS011;12421;49.732;20.078;2023-01-30T14:07:10;17.60;;;11.90;;
24301;SDS011;12421;49.732;20.078;2023-01-30T14:28:51;13.50;;;9.50;;
24301;SDS011;12421;49.732;20.078;2023-01-30T14:50:17;13.90;;;9.60;;
24301;SDS011;12421;49.732;20.078;2023-01-30T15:00:59;25.00;;;14.40;;
24301;SDS011;12421;49.732;20.078;2023-01-30T15:11:22;39.20;;;16.90;;
24301;SDS011;12421;49.732;20.078;2023-01-30T15:21:46;23.20;;;13.20;;
24301;SDS011;12421;49.732;20.078;2023-01-30T15:42:22;24.50;;;14.20;;
24301;SDS011;12421;49.732;20.078;2023-01-30T15:52:47;26.50;;;15.20;;
24301;SDS011;12421;49.732;20.078;2023-01-30T16:03:03;21.80;;;12.50;;
24301;SDS011;12421;49.732;20.078;2023-01-30T16:14:05;18.40;;;10.40;;
24301;SDS011;12421;49.732;20.078;2023-01-30T16:24:41;23.50;;;14.40;;
24301;SDS011;12421;49.732;20.078;2023-01-30T16:35:13;23.90;;;14.90;;
24301;SDS011;12421;49.732;20.078;2023-01-30T16:56:14;30.70;;;20.80;;
24301;SDS011;12421;49.732;20.078;2023-01-30T17:28:23;21.80;;;14.30;;
24301;SDS011;12421;49.732;20.078;2023-01-30T17:38:46;23.00;;;15.00;;
24301;SDS011;12421;49.732;20.078;2023-01-30T17:49:24;31.80;;;17.10;;
24301;SDS011;12421;49.732;20.078;2023-01-30T17:59:55;36.20;;;19.90;;
24301;SDS011;12421;49.732;20.078;2023-01-30T18:10:03;29.80;;;16.00;;
24301;SDS011;12421;49.732;20.078;2023-01-30T18:20:11;24.90;;;13.60;;
24301;SDS011;12421;49.732;20.078;2023-01-30T18:30:19;26.10;;;13.70;;
24301;SDS011;12421;49.732;20.078;2023-01-30T18:40:37;28.70;;;14.80;;
24301;SDS011;12421;49.732;20.078;2023-01-30T18:50:53;21.40;;;12.00;;
24301;SDS011;12421;49.732;20.078;2023-01-30T19:01:08;26.50;;;14.70;;
24301;SDS011;12421;49.732;20.078;2023-01-30T19:11:22;18.70;;;11.10;;
24301;SDS011;12421;49.732;20.078;2023-01-30T19:21:48;20.80;;;11.50;;
24301;SDS011;12421;49.732;20.078;2023-01-30T19:31:56;24.30;;;13.20;;
24301;SDS011;12421;49.732;20.078;2023-01-30T19:42:05;20.40;;;11.00;;
24301;SDS011;12421;49.732;20.078;2023-01-30T19:52:11;14.90;;;8.50;;
24301;SDS011;12421;49.732;20.078;2023-01-30T20:02:18;18.10;;;10.00;;
24301;SDS011;12421;49.732;20.078;2023-01-30T20:12:27;20.10;;;11.20;;
24301;SDS011;12421;49.732;20.078;2023-01-30T20:22:34;14.00;;;8.00;;
24301;SDS011;12421;49.732;20.078;2023-01-30T20:32:40;12.50;;;7.50;;
24301;SDS011;12421;49.732;20.078;2023-01-30T20:42:45;13.00;;;7.00;;
24301;SDS011;12421;49.732;20.078;2023-01-30T20:53:08;14.80;;;7.50;;
24301;SDS011;12421;49.732;20.078;2023-01-30T21:03:26;19.90;;;9.80;;
24301;SDS011;12421;49.732;20.078;2023-01-30T21:13:45;14.00;;;6.90;;
24301;SDS011;12421;49.732;20.078;2023-01-30T21:23:52;11.80;;;6.50;;
24301;SDS011;12421;49.732;20.078;2023-01-30T21:34:07;8.70;;;4.80;;
24301;SDS011;12421;49.732;20.078;2023-01-30T21:44:15;9.80;;;4.70;;
24301;SDS011;12421;49.732;20.078;2023-01-30T21:54:21;9.60;;;6.30;;
24301;SDS011;12421;49.732;20.078;2023-01-30T22:04:26;12.20;;;7.00;;
24301;SDS011;12421;49.732;20.078;2023-01-30T22:14:30;11.50;;;5.70;;
24301;SDS011;12421;49.732;20.078;2023-01-30T22:24:37;9.70;;;5.40;;
24301;SDS011;12421;49.732;20.078;2023-01-30T22:34:41;14.50;;;6.60;;
24301;SDS011;12421;49.732;20.078;2023-01-30T22:44:45;9.90;;;5.70;;
24301;SDS011;12421;49.732;20.078;2023-01-30T22:54:49;7.80;;;3.80;;
24301;SDS011;12421;49.732;20.078;2023-01-30T23:04:53;7.20;;;4.00;;
24301;SDS011;12421;49.732;20.078;2023-01-30T23:14:57;9.40;;;5.20;;
24301;SDS011;12421;49.732;20.078;2023-01-30T23:25:06;8.80;;;2.80;;
24301;SDS011;12421;49.732;20.078;2023-01-30T23:35:11;23.90;;;10.80;;
24301;SDS011;12421;49.732;20.078;2023-01-30T23:45:15;8.50;;;3.50;;
24301;SDS011;12421;49.732;20.078;2023-01-30T23:55:20;11.10;;;4.70;;
